Terminal Aerodrome Forecast
Issued by NWS

Home | Current Version | Previous Version | Text Only | Print | Product List | Glossary On
Versions: 1 2 3 4 5 6 7 8 9 10 11 12 13 14
000
FTUS43 KMPX 161100 RRA
TAFRWF
TAF
KRWF 161138Z 1612/1712 11019G25KT P6SM OVC100
     FM161500 09012G18KT P6SM VCSH OVC050
     FM161900 05012G20KT 4SM -RA OVC025
     FM162200 02013G21KT 2SM -SN OVC010
     FM170300 34013G22KT 5SM -SN OVC015
     FM170800 33012G20KT P6SM BKN020=

USA.gov is the U.S. government's official web portal to all federal, state and local government web resources and services.